Time;durP1;ratioP1;P1;durP2;ratioP2;P2;SDS_P1;SDS_P2;PMS_P1;PMS_P2;Temp;Humidity;BMP_temperature;BMP_pressure;BME280_temperature;BME280_humidity;BME280_pressure;Samples;Min_cycle;Max_cycle;Signal;HPM_P1;HPM_P2
2021/05/02 00:02:09;;;;;;;17.90;9.13;;;;;;;21.92;100.00;100517.84;5039238;28;20032;-75
2021/05/02 00:04:55;;;;;;;14.98;8.50;;;;;;;21.69;100.00;100518.47;5039577;28;20036;-75
2021/05/02 00:07:41;;;;;;;19.98;9.05;;;;;;;21.60;100.00;100521.75;5053934;28;20343;-75
2021/05/02 00:10:29;;;;;;;21.23;9.95;;;;;;;21.54;100.00;100528.34;5054574;28;20357;-75
2021/05/02 00:13:15;;;;;;;17.05;8.70;;;;;;;21.22;100.00;100523.41;5054357;28;20111;-75
2021/05/02 00:16:00;;;;;;;15.20;9.02;;;;;;;21.47;100.00;100534.19;5054350;28;20031;-74
2021/05/02 00:18:47;;;;;;;17.73;9.40;;;;;;;21.61;100.00;100536.78;5054337;28;20021;-74
2021/05/02 00:21:34;;;;;;;18.52;9.35;;;;;;;21.94;100.00;100543.47;5053736;28;20032;-74
2021/05/02 00:24:21;;;;;;;17.08;8.57;;;;;;;22.17;100.00;100541.91;5041215;28;20067;-74
2021/05/02 00:27:07;;;;;;;19.80;10.30;;;;;;;21.84;100.00;100538.84;5057116;28;20079;-74
2021/05/02 00:29:53;;;;;;;19.10;10.95;;;;;;;22.20;100.00;100531.91;5057067;28;20112;-74
2021/05/02 00:32:43;;;;;;;24.48;11.57;;;;;;;21.91;100.00;100529.47;5056784;28;20021;-73
2021/05/02 00:35:30;;;;;;;23.30;10.38;;;;;;;22.10;100.00;100524.63;5056889;28;20052;-74
2021/05/02 00:38:15;;;;;;;16.55;9.90;;;;;;;22.49;100.00;100508.56;5057742;28;20110;-74
2021/05/02 00:41:07;;;;;;;19.08;9.55;;;;;;;21.73;100.00;100488.88;5057366;28;20032;-75
2021/05/02 00:43:58;;;;;;;17.67;9.80;;;;;;;22.22;100.00;100449.91;5056901;28;20351;-74
2021/05/02 00:46:51;;;;;;;20.60;10.10;;;;;;;21.99;100.00;100437.28;5058111;28;20057;-73
2021/05/02 00:50:05;;;;;;;22.67;9.50;;;;;;;21.84;100.00;100458.81;5056991;28;20040;-76
2021/05/02 00:53:17;;;;;;;19.73;9.60;;;;;;;21.97;100.00;100465.88;5057054;28;20032;-75
2021/05/02 00:56:29;;;;;;;14.63;9.48;;;;;;;21.82;100.00;100471.41;5057799;28;20377;-74
2021/05/02 00:59:25;;;;;;;16.00;9.35;;;;;;;21.82;100.00;100482.94;5057672;28;20123;-74
2021/05/02 01:02:12;;;;;;;16.60;9.77;;;;;;;21.99;100.00;100466.63;5056670;28;20142;-74
2021/05/02 01:05:03;;;;;;;16.33;9.00;;;;;;;22.03;100.00;100448.63;5056965;28;20029;-74
2021/05/02 01:07:54;;;;;;;22.17;9.63;;;;;;;21.95;100.00;100440.28;5057032;28;20067;-74
2021/05/02 01:10:40;;;;;;;16.90;9.30;;;;;;;22.04;100.00;100443.19;5055852;28;20025;-74
2021/05/02 01:13:29;;;;;;;15.32;8.75;;;;;;;22.13;100.00;100442.53;5056938;28;20040;-74
2021/05/02 01:16:16;;;;;;;16.92;8.98;;;;;;;21.99;100.00;100457.78;5043104;28;20473;-75
2021/05/02 01:19:07;;;;;;;13.55;8.93;;;;;;;22.15;100.00;100442.44;5042504;28;20025;-75
2021/05/02 01:21:58;;;;;;;16.55;9.50;;;;;;;22.29;100.00;100451.19;5042621;28;20108;-75
2021/05/02 01:24:46;;;;;;;18.80;9.40;;;;;;;22.18;100.00;100445.72;5056965;28;20457;-75
2021/05/02 01:27:32;;;;;;;16.63;9.48;;;;;;;22.21;100.00;100447.34;5056290;28;20029;-76
2021/05/02 01:30:19;;;;;;;20.20;9.38;;;;;;;21.91;100.00;100439.63;5057126;28;20052;-75
2021/05/02 01:33:05;;;;;;;19.45;9.88;;;;;;;22.25;100.00;100435.47;5056537;28;20033;-75
2021/05/02 01:35:51;;;;;;;16.67;9.52;;;;;;;21.91;100.00;100420.09;5055198;28;20393;-75
2021/05/02 01:38:37;;;;;;;18.75;9.27;;;;;;;22.21;100.00;100415.31;5055937;28;20025;-75
2021/05/02 01:41:26;;;;;;;16.77;8.98;;;;;;;22.23;100.00;100416.06;5042057;28;20053;-76
2021/05/02 01:44:12;;;;;;;20.08;8.73;;;;;;;22.05;100.00;100412.00;5056644;28;20103;-75
2021/05/02 01:47:04;;;;;;;18.48;9.52;;;;;;;22.16;100.00;100396.97;5056640;28;20057;-75
2021/05/02 01:49:55;;;;;;;18.70;9.30;;;;;;;22.19;100.00;100394.06;5056330;28;20037;-75
2021/05/02 01:52:47;;;;;;;17.33;8.85;;;;;;;22.27;100.00;100398.88;5056815;28;20029;-75
2021/05/02 01:55:33;;;;;;;18.58;8.80;;;;;;;22.22;100.00;100393.84;5055788;28;20037;-75
2021/05/02 01:58:21;;;;;;;20.50;9.40;;;;;;;22.16;100.00;100396.09;5056136;28;20112;-74
2021/05/02 02:01:10;;;;;;;16.52;9.00;;;;;;;22.17;100.00;100396.00;5056515;28;20420;-75
2021/05/02 02:03:57;;;;;;;19.40;8.77;;;;;;;21.90;100.00;100397.06;5055607;28;20035;-75
2021/05/02 02:06:43;;;;;;;16.10;7.90;;;;;;;22.08;100.00;100390.44;5041095;28;20445;-75
2021/05/02 02:09:30;;;;;;;24.65;9.05;;;;;;;21.90;100.00;100389.91;5041817;28;20036;-75
2021/05/02 02:12:16;;;;;;;20.67;9.43;;;;;;;21.72;100.00;100382.31;5040713;28;20108;-75
2021/05/02 02:15:03;;;;;;;22.02;10.10;;;;;;;21.57;100.00;100386.84;5055258;28;20033;-76
2021/05/02 02:17:49;;;;;;;18.30;9.18;;;;;;;21.55;100.00;100390.56;5041059;28;20029;-76
2021/05/02 02:20:41;;;;;;;17.80;9.23;;;;;;;21.70;100.00;100379.75;5040485;28;20047;-76
2021/05/02 02:23:33;;;;;;;20.75;8.75;;;;;;;21.70;100.00;100385.06;5041851;28;20035;-75
2021/05/02 02:26:24;;;;;;;17.98;8.50;;;;;;;21.33;100.00;100395.63;5055439;28;20033;-75
2021/05/02 02:29:12;;;;;;;14.00;7.93;;;;;;;21.51;100.00;100378.41;5041740;28;20032;-76
2021/05/02 02:32:03;;;;;;;29.95;13.95;;;;;;;21.54;100.00;100354.22;5040947;28;20033;-75
2021/05/02 02:34:49;;;;;;;22.92;12.55;;;;;;;21.57;100.00;100343.31;5041199;28;20095;-76
2021/05/02 02:37:38;;;;;;;20.13;9.63;;;;;;;21.58;100.00;100342.38;5040946;28;20052;-75
2021/05/02 02:40:24;;;;;;;19.25;9.82;;;;;;;21.58;100.00;100343.22;5055049;28;20072;-75
2021/05/02 02:43:10;;;;;;;19.20;9.48;;;;;;;21.32;100.00;100338.81;5054905;28;20265;-74
2021/05/02 02:46:04;;;;;;;19.83;9.00;;;;;;;21.34;100.00;100331.56;5053554;28;20049;-75
2021/05/02 02:48:58;;;;;;;21.52;9.85;;;;;;;21.38;100.00;100327.72;5054185;28;20037;-75
2021/05/02 02:51:46;;;;;;;16.00;9.57;;;;;;;21.38;100.00;100342.88;5054891;28;20059;-75
2021/05/02 02:54:35;;;;;;;17.45;9.38;;;;;;;20.90;100.00;100341.63;5040832;28;20025;-75
2021/05/02 02:57:25;;;;;;;19.58;8.82;;;;;;;21.02;100.00;100340.84;5054632;28;20025;-75
2021/05/02 03:00:12;;;;;;;14.18;9.10;;;;;;;21.17;100.00;100337.16;5041615;28;20090;-75
2021/05/02 03:03:14;;;;;;;17.23;9.30;;;;;;;21.23;100.00;100343.91;5055451;28;20509;-76
2021/05/02 03:06:03;;;;;;;19.15;9.50;;;;;;;21.03;100.00;100355.03;5055236;28;20071;-75
2021/05/02 03:08:53;;;;;;;20.35;9.77;;;;;;;21.06;100.00;100358.34;5054154;28;20496;-75
2021/05/02 03:11:39;;;;;;;20.15;9.20;;;;;;;20.97;100.00;100360.78;5055467;28;20121;-74
2021/05/02 03:14:25;;;;;;;18.17;10.35;;;;;;;21.02;100.00;100353.31;5055431;28;20033;-76
2021/05/02 03:17:12;;;;;;;18.65;9.77;;;;;;;20.82;100.00;100348.41;5055069;28;20087;-75
2021/05/02 03:20:05;;;;;;;18.38;9.98;;;;;;;20.80;100.00;100348.50;5054127;28;20029;-75
2021/05/02 03:23:12;;;;;;;18.35;9.40;;;;;;;20.64;100.00;100349.59;5039274;28;20029;-75
2021/05/02 03:26:02;;;;;;;18.85;9.73;;;;;;;20.63;100.00;100362.06;5039983;28;20025;-75
2021/05/02 03:28:58;;;;;;;21.45;10.18;;;;;;;20.76;100.00;100362.97;5040911;28;20075;-73
2021/05/02 03:31:48;;;;;;;20.88;10.65;;;;;;;20.98;100.00;100360.66;5040319;28;20488;-74
2021/05/02 03:34:39;;;;;;;17.80;10.13;;;;;;;21.00;100.00;100356.09;5053737;28;20033;-74
2021/05/02 03:37:31;;;;;;;18.98;9.98;;;;;;;21.02;100.00;100346.16;5040256;28;20094;-73
2021/05/02 03:40:17;;;;;;;19.60;10.13;;;;;;;21.26;100.00;100341.03;5055355;28;20128;-76
2021/05/02 03:43:07;;;;;;;24.65;11.35;;;;;;;21.04;100.00;100346.06;5038770;28;20032;-76
2021/05/02 03:45:53;;;;;;;16.38;10.98;;;;;;;21.09;100.00;100336.00;5039410;28;20087;-76
2021/05/02 03:48:39;;;;;;;20.23;10.63;;;;;;;20.77;100.00;100330.06;5053924;28;20421;-76
2021/05/02 03:51:26;;;;;;;22.88;11.65;;;;;;;20.86;100.00;100333.94;5053864;28;20029;-75
2021/05/02 03:54:12;;;;;;;20.27;10.77;;;;;;;20.79;100.00;100332.63;5039971;28;20029;-74
2021/05/02 03:56:58;;;;;;;23.85;12.02;;;;;;;20.96;100.00;100335.06;5054186;28;20028;-75
2021/05/02 03:59:43;;;;;;;22.15;11.95;;;;;;;20.99;100.00;100343.72;5040708;28;20024;-74
2021/05/02 04:02:29;;;;;;;21.98;11.95;;;;;;;21.12;100.00;100335.75;5043470;28;20036;-75
2021/05/02 04:05:15;;;;;;;20.42;11.60;;;;;;;21.21;100.00;100354.66;5044165;28;20043;-75
2021/05/02 04:08:01;;;;;;;22.35;12.10;;;;;;;20.91;100.00;100354.03;5043479;28;20025;-75
2021/05/02 04:10:47;;;;;;;19.52;11.60;;;;;;;20.93;100.00;100357.44;5058758;28;20032;-75
2021/05/02 04:13:33;;;;;;;21.67;12.35;;;;;;;21.06;100.00;100352.16;5057089;28;20460;-74
2021/05/02 04:16:19;;;;;;;20.70;12.07;;;;;;;21.13;100.00;100362.31;5030545;28;20025;-74
2021/05/02 04:19:06;;;;;;;21.70;12.45;;;;;;;21.10;100.00;100370.50;5058481;28;20031;-75
2021/05/02 04:21:52;;;;;;;24.73;11.88;;;;;;;21.45;100.00;100371.66;5058640;28;20029;-75
2021/05/02 04:24:38;;;;;;;21.08;12.50;;;;;;;21.85;100.00;100376.03;5043929;28;20119;-75
2021/05/02 04:27:24;;;;;;;23.48;11.63;;;;;;;22.20;100.00;100363.75;5057924;28;20394;-75
2021/05/02 04:30:10;;;;;;;24.30;11.25;;;;;;;22.11;100.00;100363.56;5058596;28;20053;-75
2021/05/02 04:32:56;;;;;;;18.15;11.43;;;;;;;21.91;100.00;100364.91;5057641;28;20040;-75
2021/05/02 04:35:42;;;;;;;23.02;12.07;;;;;;;21.75;100.00;100360.78;5057947;28;20035;-75
2021/05/02 04:38:28;;;;;;;25.92;11.65;;;;;;;21.38;100.00;100354.38;5042715;28;20056;-76
2021/05/02 04:41:14;;;;;;;18.73;11.65;;;;;;;21.57;100.00;100348.66;5057318;28;20449;-75
2021/05/02 04:43:59;;;;;;;18.75;10.95;;;;;;;21.91;100.00;100343.59;5057039;28;20119;-75
2021/05/02 04:46:45;;;;;;;21.88;11.55;;;;;;;22.02;100.00;100353.53;5056407;28;20057;-75
2021/05/02 04:49:31;;;;;;;22.83;11.70;;;;;;;21.94;100.00;100350.53;5042059;28;20111;-74
2021/05/02 04:52:17;;;;;;;18.92;10.35;;;;;;;22.15;100.00;100333.84;5043109;28;20029;-75
2021/05/02 04:55:03;;;;;;;19.48;10.77;;;;;;;22.09;100.00;100341.44;5043166;28;20040;-76
2021/05/02 04:57:49;;;;;;;17.85;10.10;;;;;;;22.46;100.00;100349.44;5043550;28;20013;-75
2021/05/02 05:00:35;;;;;;;18.13;9.05;;;;;;;22.35;100.00;100349.31;5057912;28;20029;-76
2021/05/02 05:03:21;;;;;;;16.23;8.77;;;;;;;22.20;100.00;100350.41;5057409;28;20111;-76
2021/05/02 05:06:06;;;;;;;17.67;8.68;;;;;;;22.44;100.00;100362.00;5058160;28;20028;-76
2021/05/02 05:08:52;;;;;;;16.85;9.05;;;;;;;22.25;100.00;100358.94;5042363;28;20030;-76
2021/05/02 05:11:38;;;;;;;15.25;8.30;;;;;;;22.02;100.00;100350.88;5055736;28;20029;-76
2021/05/02 05:14:24;;;;;;;14.30;8.00;;;;;;;22.03;100.00;100350.72;5057548;28;20033;-75
2021/05/02 05:17:10;;;;;;;13.93;6.72;;;;;;;22.21;100.00;100333.44;5056795;28;20029;-74
2021/05/02 05:19:55;;;;;;;16.10;9.85;;;;;;;23.01;100.00;100322.19;5057665;28;20364;-75
2021/05/02 05:22:41;;;;;;;17.20;8.48;;;;;;;23.20;100.00;100338.59;5042632;28;20077;-75
2021/05/02 05:25:27;;;;;;;15.25;7.80;;;;;;;22.51;100.00;100357.94;5043166;28;20055;-75
2021/05/02 05:28:13;;;;;;;14.23;6.70;;;;;;;22.17;100.00;100352.44;5042878;28;20043;-75
2021/05/02 05:30:59;;;;;;;15.30;6.97;;;;;;;22.50;100.00;100342.91;5042181;28;20119;-75
2021/05/02 05:33:45;;;;;;;12.85;6.45;;;;;;;23.26;100.00;100344.34;5057396;28;20036;-75
2021/05/02 05:36:30;;;;;;;17.02;6.72;;;;;;;23.52;100.00;100349.53;5057978;28;20053;-74
2021/05/02 05:39:16;;;;;;;15.65;8.73;;;;;;;23.24;100.00;100350.78;5056897;28;20122;-75
2021/05/02 05:42:05;;;;;;;14.15;6.95;;;;;;;23.03;100.00;100330.97;5042446;28;20464;-75
2021/05/02 05:44:50;;;;;;;16.10;9.05;;;;;;;23.44;100.00;100315.34;5056459;28;20036;-75
2021/05/02 05:47:36;;;;;;;16.02;6.70;;;;;;;23.62;100.00;100307.75;5056461;28;20041;-75
2021/05/02 05:50:23;;;;;;;14.55;6.53;;;;;;;23.87;100.00;100315.56;5056245;28;20029;-75
2021/05/02 05:53:08;;;;;;;13.38;6.20;;;;;;;24.33;100.00;100319.84;5057244;28;20039;-74
2021/05/02 05:55:56;;;;;;;13.48;6.57;;;;;;;24.72;100.00;100321.16;5042395;28;20032;-74
2021/05/02 05:58:42;;;;;;;16.23;6.90;;;;;;;25.10;100.00;100327.72;5041909;28;20024;-74
2021/05/02 06:01:28;;;;;;;14.23;6.90;;;;;;;24.40;100.00;100315.72;5057010;28;20091;-75
2021/05/02 06:04:15;;;;;;;12.32;5.90;;;;;;;24.86;100.00;100318.19;5057061;28;20035;-74
2021/05/02 06:07:01;;;;;;;14.48;6.25;;;;;;;25.22;100.00;100305.25;5055970;28;20087;-75
2021/05/02 06:09:47;;;;;;;11.27;6.10;;;;;;;25.10;100.00;100305.41;5057492;28;20043;-74
2021/05/02 06:12:33;;;;;;;14.32;6.95;;;;;;;25.25;100.00;100312.19;5055841;28;20366;-75
2021/05/02 06:15:19;;;;;;;14.07;5.68;;;;;;;25.40;100.00;100302.88;5056463;28;20450;-75
2021/05/02 06:18:04;;;;;;;12.52;7.65;;;;;;;25.29;100.00;100298.44;5055821;28;20067;-75
2021/05/02 06:20:50;;;;;;;12.50;5.57;;;;;;;25.55;100.00;100299.72;5055483;28;20040;-75
2021/05/02 06:23:36;;;;;;;19.45;8.05;;;;;;;24.99;100.00;100297.44;5055121;28;20028;-74
2021/05/02 06:26:23;;;;;;;19.45;8.90;;;;;;;24.67;100.00;100308.13;5055127;28;20025;-74
2021/05/02 06:29:08;;;;;;;19.67;7.78;;;;;;;24.35;100.00;100309.00;5055543;28;20025;-73
2021/05/02 06:31:54;;;;;;;17.42;6.57;;;;;;;24.54;100.00;100309.22;5055086;28;20031;-74
2021/05/02 06:34:40;;;;;;;12.20;6.03;;;;;;;24.76;100.00;100307.38;5055121;28;20051;-74
2021/05/02 06:37:26;;;;;;;16.67;6.05;;;;;;;25.11;100.00;100293.75;5056337;28;20036;-74
2021/05/02 06:40:12;;;;;;;15.05;6.43;;;;;;;25.47;100.00;100286.13;5056418;28;20025;-75
2021/05/02 06:42:59;;;;;;;20.30;6.80;;;;;;;25.58;100.00;100283.38;5055970;28;20122;-75
2021/05/02 06:45:45;;;;;;;12.25;6.72;;;;;;;25.37;100.00;100295.94;5055406;28;20072;-74
2021/05/02 06:48:31;;;;;;;18.05;7.07;;;;;;;25.63;100.00;100291.88;5055082;28;20473;-74
2021/05/02 06:51:17;;;;;;;17.75;6.80;;;;;;;26.03;100.00;100282.09;5055788;28;20103;-73
2021/05/02 06:54:03;;;;;;;18.10;6.88;;;;;;;26.82;100.00;100282.06;5054727;28;20076;-74
2021/05/02 06:56:48;;;;;;;16.17;6.47;;;;;;;26.83;100.00;100285.56;5055215;28;20353;-75
2021/05/02 06:59:34;;;;;;;20.95;6.78;;;;;;;27.37;100.00;100283.22;5055902;28;20086;-74
2021/05/02 07:02:21;;;;;;;13.52;6.22;;;;;;;27.61;100.00;100282.75;5040624;28;20047;-75
2021/05/02 07:05:07;;;;;;;12.75;6.03;;;;;;;27.85;100.00;100280.44;5041477;28;20025;-75
2021/05/02 07:07:54;;;;;;;12.73;6.13;;;;;;;27.89;100.00;100285.41;5040813;28;20029;-75
2021/05/02 07:10:39;;;;;;;12.68;5.45;;;;;;;28.02;100.00;100293.13;5055232;28;20025;-75
2021/05/02 07:13:27;;;;;;;14.90;5.80;;;;;;;28.01;100.00;100292.31;5040232;28;20028;-75
2021/05/02 07:16:13;;;;;;;13.00;5.47;;;;;;;27.94;100.00;100298.41;5055015;28;20461;-74
2021/05/02 07:18:59;;;;;;;12.30;5.53;;;;;;;28.10;100.00;100302.19;5040566;28;20120;-74
2021/05/02 07:21:44;;;;;;;14.75;6.45;;;;;;;27.84;100.00;100302.97;5055182;28;20087;-76
2021/05/02 07:24:30;;;;;;;14.18;6.20;;;;;;;28.26;100.00;100315.88;5055977;28;20138;-75
2021/05/02 07:27:16;;;;;;;13.68;6.28;;;;;;;28.58;100.00;100319.00;5040583;28;20119;-76
2021/05/02 07:30:03;;;;;;;20.42;6.13;;;;;;;28.20;100.00;100329.91;5054652;28;20362;-76
2021/05/02 07:32:49;;;;;;;10.93;5.68;;;;;;;29.07;100.00;100315.84;5054508;28;20033;-75
2021/05/02 07:35:35;;;;;;;13.55;5.72;;;;;;;28.93;100.00;100304.72;5053945;28;20099;-76
2021/05/02 07:38:21;;;;;;;14.07;5.38;;;;;;;28.98;100.00;100308.66;5055185;28;20021;-75
2021/05/02 07:41:08;;;;;;;14.80;6.35;;;;;;;28.50;100.00;100304.56;5055828;28;20143;-74
2021/05/02 07:43:53;;;;;;;15.85;5.93;;;;;;;28.56;100.00;100306.69;5040532;28;20037;-74
2021/05/02 07:46:40;;;;;;;12.40;5.65;;;;;;;28.11;100.00;100300.31;5055077;28;20132;-74
2021/05/02 07:49:25;;;;;;;15.60;5.90;;;;;;;28.43;100.00;100307.03;5054639;28;20112;-74
2021/05/02 07:52:11;;;;;;;17.55;5.97;;;;;;;28.79;100.00;100303.41;5055354;28;20048;-75
2021/05/02 07:54:57;;;;;;;12.05;5.40;;;;;;;29.26;100.00;100304.91;5054380;28;20055;-76
2021/05/02 07:57:43;;;;;;;10.20;5.88;;;;;;;29.38;100.00;100298.28;5055046;28;20025;-76
2021/05/02 08:00:29;;;;;;;12.45;5.68;;;;;;;29.93;100.00;100307.78;5055662;28;20033;-76
2021/05/02 08:03:15;;;;;;;15.82;5.70;;;;;;;29.88;100.00;100309.28;5054490;28;20025;-76
2021/05/02 08:06:00;;;;;;;12.38;5.50;;;;;;;29.93;100.00;100298.84;5055675;28;20031;-75
2021/05/02 08:08:46;;;;;;;13.05;6.10;;;;;;;29.81;100.00;100305.53;5055058;28;20091;-75
2021/05/02 08:11:32;;;;;;;16.27;6.15;;;;;;;29.77;100.00;100296.88;5041082;28;20089;-76
2021/05/02 08:14:18;;;;;;;12.35;5.55;;;;;;;29.63;100.00;100308.28;5039791;28;20564;-76
2021/05/02 08:17:04;;;;;;;14.63;6.47;;;;;;;29.50;100.00;100301.56;5055214;28;20043;-75
2021/05/02 08:19:50;;;;;;;11.13;5.15;;;;;;;30.14;100.00;100300.16;5054935;28;20454;-75
2021/05/02 08:22:35;;;;;;;13.85;5.90;;;;;;;30.06;100.00;100304.69;5053875;28;20025;-75
2021/05/02 08:25:21;;;;;;;12.93;5.75;;;;;;;29.85;100.00;100301.50;5055264;28;20511;-75
2021/05/02 08:28:07;;;;;;;10.88;5.32;;;;;;;29.98;100.00;100296.53;5054393;28;20059;-75
2021/05/02 08:30:53;;;;;;;16.92;6.00;;;;;;;29.93;100.00;100290.75;5054782;28;20032;-74
2021/05/02 08:33:39;;;;;;;12.18;5.40;;;;;;;30.90;99.90;100290.19;5054800;28;20369;-75
2021/05/02 08:36:25;;;;;;;13.00;5.40;;;;;;;31.48;94.98;100290.91;5054285;28;20032;-75
2021/05/02 08:39:11;;;;;;;16.88;5.30;;;;;;;30.85;94.64;100285.25;5053630;28;20096;-75
2021/05/02 08:41:56;;;;;;;8.60;5.05;;;;;;;30.51;100.00;100294.44;5056431;28;20450;-75
2021/05/02 08:44:42;;;;;;;11.73;5.35;;;;;;;30.95;99.29;100285.94;5055650;28;20040;-75
2021/05/02 08:47:35;;;;;;;12.77;5.13;;;;;;;30.74;100.00;100299.09;5057691;28;20049;-75
2021/05/02 08:50:21;;;;;;;14.30;4.85;;;;;;;30.82;94.92;100290.16;5057617;28;20403;-76
2021/05/02 08:53:07;;;;;;;15.90;4.82;;;;;;;30.83;97.55;100286.44;5057018;28;20033;-74
2021/05/02 08:55:54;;;;;;;13.02;4.82;;;;;;;30.76;93.72;100288.97;5057272;28;20033;-74
2021/05/02 08:58:40;;;;;;;14.07;4.28;;;;;;;31.00;89.94;100291.72;5058135;28;20068;-75
2021/05/02 09:01:31;;;;;;;11.70;4.60;;;;;;;31.15;84.41;100281.06;5057814;28;20036;-75
2021/05/02 09:04:17;;;;;;;14.63;5.65;;;;;;;30.95;85.34;100293.22;5057700;28;20040;-75
2021/05/02 09:07:14;;;;;;;13.02;4.40;;;;;;;30.97;79.30;100291.19;5058154;28;20055;-74
2021/05/02 09:10:00;;;;;;;8.98;3.58;;;;;;;31.27;76.13;100282.47;5057655;28;20121;-74
2021/05/02 09:13:00;;;;;;;12.15;3.50;;;;;;;31.02;72.74;100286.13;5056690;28;20054;-74
2021/05/02 09:16:03;;;;;;;7.18;3.25;;;;;;;31.54;69.39;100292.91;5057215;28;20021;-74
2021/05/02 09:18:49;;;;;;;9.65;3.22;;;;;;;31.79;62.31;100299.19;5057854;28;20052;-74
2021/05/02 09:21:35;;;;;;;9.80;3.17;;;;;;;31.86;59.86;100297.50;5056395;28;20366;-74
2021/05/02 09:24:26;;;;;;;6.57;3.40;;;;;;;32.06;57.59;100293.38;5056351;28;20025;-74
2021/05/02 09:27:13;;;;;;;7.05;3.10;;;;;;;31.45;58.24;100295.84;5056206;28;20095;-74
2021/05/02 09:30:19;;;;;;;7.13;2.72;;;;;;;31.01;57.75;100301.53;5057531;28;20017;-75
2021/05/02 09:33:05;;;;;;;7.70;4.07;;;;;;;31.18;57.81;100305.94;5056634;28;20037;-75
2021/05/02 09:35:52;;;;;;;11.57;3.05;;;;;;;31.21;56.63;100313.72;5056846;28;20029;-76
2021/05/02 09:38:38;;;;;;;12.18;3.33;;;;;;;31.46;54.58;100309.19;5057103;28;20021;-74
2021/05/02 09:41:24;;;;;;;11.65;4.10;;;;;;;31.80;52.96;100314.44;5057110;28;20166;-74
2021/05/02 09:44:10;;;;;;;7.32;2.88;;;;;;;32.12;54.11;100315.22;5027762;28;20043;-75
2021/05/02 09:47:34;;;;;;;10.07;3.38;;;;;;;32.33;53.58;100303.81;5057270;28;20045;-76
2021/05/02 09:50:25;;;;;;;10.32;3.55;;;;;;;32.77;52.35;100318.53;5056839;28;20358;-75
2021/05/02 09:53:15;;;;;;;10.82;4.05;;;;;;;32.53;50.10;100318.66;5056506;28;20052;-75
2021/05/02 09:56:13;;;;;;;8.40;2.97;;;;;;;32.33;50.66;100317.38;5056428;28;20426;-75
2021/05/02 09:58:59;;;;;;;9.57;3.45;;;;;;;32.33;50.77;100318.22;5041795;28;20032;-75
2021/05/02 10:02:08;;;;;;;10.00;3.25;;;;;;;31.74;53.29;100312.41;5056662;28;20039;-74
2021/05/02 10:04:57;;;;;;;10.30;3.28;;;;;;;31.92;53.97;100310.34;5054404;28;20032;-74
2021/05/02 10:07:43;;;;;;;8.13;3.13;;;;;;;31.53;55.59;100309.38;5042158;28;20042;-74
2021/05/02 10:10:29;;;;;;;10.30;3.13;;;;;;;31.71;56.50;100299.19;5056670;28;20021;-74
2021/05/02 10:13:15;;;;;;;10.75;3.95;;;;;;;31.82;55.82;100296.16;5041942;28;20029;-74
2021/05/02 10:16:02;;;;;;;11.60;3.72;;;;;;;32.24;54.48;100299.41;5056558;28;20039;-74
2021/05/02 10:18:49;;;;;;;12.30;3.80;;;;;;;32.12;53.28;100298.09;5056466;28;20029;-75
2021/05/02 10:21:39;;;;;;;8.38;3.28;;;;;;;32.14;53.28;100307.75;5055601;28;20357;-75
2021/05/02 10:24:25;;;;;;;17.48;3.20;;;;;;;32.06;53.71;100307.78;5055645;28;20368;-75
2021/05/02 10:27:11;;;;;;;13.18;4.15;;;;;;;32.02;54.11;100301.00;5055935;28;20024;-75
2021/05/02 10:30:00;;;;;;;14.45;3.33;;;;;;;31.67;51.88;100287.00;5056381;28;20035;-75
2021/05/02 10:32:53;;;;;;;12.80;3.55;;;;;;;31.66;51.57;100288.84;5041108;28;20044;-76
2021/05/02 10:35:52;;;;;;;16.70;3.60;;;;;;;31.95;53.16;100297.31;5056537;28;20028;-73
2021/05/02 10:38:55;;;;;;;12.57;3.28;;;;;;;31.37;49.96;100293.13;5054397;28;20020;-75
2021/05/02 10:41:45;;;;;;;13.65;4.13;;;;;;;31.56;49.23;100277.38;5055287;28;20029;-74
2021/05/02 10:44:31;;;;;;;10.85;3.90;;;;;;;31.68;49.95;100291.38;5040867;28;20056;-74
2021/05/02 10:47:43;;;;;;;11.85;3.83;;;;;;;31.68;51.94;100285.97;5054527;28;20068;-76
2021/05/02 10:50:43;;;;;;;11.50;3.92;;;;;;;31.39;51.00;100298.19;5040441;28;20098;-75
2021/05/02 10:53:28;;;;;;;14.95;3.80;;;;;;;31.34;48.32;100291.59;5055324;28;20025;-75
2021/05/02 10:56:15;;;;;;;20.45;3.58;;;;;;;31.06;45.76;100303.75;5055297;28;20025;-75
2021/05/02 10:59:01;;;;;;;11.85;3.83;;;;;;;31.47;46.13;100297.34;5054743;28;20037;-75
2021/05/02 11:01:47;;;;;;;14.73;3.50;;;;;;;31.52;46.60;100284.13;5055858;28;20025;-75
2021/05/02 11:05:03;;;;;;;11.90;3.55;;;;;;;31.71;48.26;100289.22;5054898;28;20385;-75
2021/05/02 11:07:56;;;;;;;12.30;4.20;;;;;;;31.98;49.72;100286.09;5036596;28;20033;-75
2021/05/02 11:10:51;;;;;;;11.95;3.72;;;;;;;32.06;48.81;100285.25;5054816;28;20045;-74
2021/05/02 11:13:37;;;;;;;17.60;3.60;;;;;;;31.93;47.22;100285.78;5055174;28;20032;-73
2021/05/02 11:16:25;;;;;;;15.40;3.70;;;;;;;31.15;49.17;100281.91;5055914;28;20039;-75
2021/05/02 11:19:12;;;;;;;15.65;3.85;;;;;;;31.20;49.57;100276.84;5055801;28;20020;-76
2021/05/02 11:22:04;;;;;;;10.30;4.15;;;;;;;31.14;51.24;100284.81;5055629;28;20361;-74
2021/05/02 11:24:54;;;;;;;13.05;4.40;;;;;;;31.17;50.56;100284.44;5054228;28;20036;-75
2021/05/02 11:27:53;;;;;;;13.95;3.30;;;;;;;31.54;50.68;100281.25;5054863;28;20048;-74
2021/05/02 11:30:47;;;;;;;14.98;3.80;;;;;;;31.10;50.85;100284.28;5054599;28;20025;-74
2021/05/02 11:33:33;;;;;;;16.00;3.90;;;;;;;31.24;49.90;100288.22;5054007;28;20052;-74
2021/05/02 11:36:39;;;;;;;22.77;4.22;;;;;;;31.42;50.58;100280.75;5040753;28;20036;-73
2021/05/02 11:39:31;;;;;;;19.67;4.07;;;;;;;30.96;49.11;100284.09;5040532;28;20024;-74
2021/05/02 11:42:17;;;;;;;14.90;3.72;;;;;;;30.84;49.99;100293.53;5054502;28;20020;-74
2021/05/02 11:45:05;;;;;;;16.55;3.58;;;;;;;31.12;49.68;100298.50;5054359;28;20032;-74
2021/05/02 11:47:51;;;;;;;17.05;3.90;;;;;;;30.84;50.62;100297.09;5054534;28;20049;-73
2021/05/02 11:50:41;;;;;;;13.68;3.70;;;;;;;30.87;51.35;100283.22;5054559;28;20036;-74
2021/05/02 11:53:43;;;;;;;14.98;4.35;;;;;;;30.76;52.31;100278.16;5040520;28;20044;-74
2021/05/02 11:56:33;;;;;;;19.70;3.53;;;;;;;30.96;50.89;100274.13;5055116;28;20040;-74
2021/05/02 11:59:19;;;;;;;16.52;3.60;;;;;;;31.06;50.92;100280.19;5039473;28;20032;-74
2021/05/02 12:02:05;;;;;;;16.25;3.63;;;;;;;31.42;49.78;100277.22;5040362;28;20457;-75
2021/05/02 12:04:51;;;;;;;17.00;3.67;;;;;;;31.16;50.14;100269.22;5040612;28;20037;-74
2021/05/02 12:07:37;;;;;;;21.60;3.90;;;;;;;31.13;49.32;100261.44;5054794;28;20083;-73
2021/05/02 12:10:22;;;;;;;15.52;3.53;;;;;;;31.42;48.51;100272.63;5054601;28;20099;-74
2021/05/02 12:13:31;;;;;;;36.38;5.50;;;;;;;31.78;45.15;100281.25;5055281;28;20029;-75
2021/05/02 12:16:26;;;;;;;16.30;6.07;;;;;;;31.75;46.19;100279.72;5054634;28;20021;-73
2021/05/02 12:19:11;;;;;;;16.15;4.47;;;;;;;32.04;44.63;100282.72;5055186;28;20041;-75
2021/05/02 12:21:57;;;;;;;13.63;3.58;;;;;;;32.15;44.74;100278.78;5057994;28;20116;-75
2021/05/02 12:24:47;;;;;;;15.57;3.55;;;;;;;32.22;43.88;100279.78;5043801;28;20025;-74
2021/05/02 12:27:33;;;;;;;13.73;3.63;;;;;;;31.71;44.89;100263.97;5043415;28;20037;-75
2021/05/02 12:30:20;;;;;;;20.00;3.50;;;;;;;31.97;45.25;100270.03;5057964;28;20441;-75
2021/05/02 12:33:06;;;;;;;20.75;4.43;;;;;;;31.74;43.56;100252.78;5058140;28;20158;-76
2021/05/02 12:35:51;;;;;;;19.60;7.20;;;;;;;31.98;43.78;100256.28;5057421;28;20104;-74
2021/05/02 12:38:39;;;;;;;18.40;4.50;;;;;;;32.35;42.50;100253.81;5058502;28;20365;-74
2021/05/02 12:41:25;;;;;;;17.92;4.47;;;;;;;32.12;42.91;100250.16;5057135;28;20528;-75
2021/05/02 12:44:20;;;;;;;51.50;34.92;;;;;;;31.98;43.54;100253.56;5056908;28;20052;-74
2021/05/02 12:47:28;;;;;;;17.08;3.55;;;;;;;31.53;44.20;100247.06;5027563;28;20088;-75
2021/05/02 12:50:15;;;;;;;17.00;4.25;;;;;;;31.60;44.85;100253.47;5035944;28;20057;-75